sensor_id;sensor_type;location;lat;lon;timestamp;temperature;humidity
29403;DHT22;16382;59.942;30.472;2023-03-01T00:01:11;-2.00;99.90
29403;DHT22;16382;59.942;30.472;2023-03-01T00:03:39;-2.00;99.90
29403;DHT22;16382;59.942;30.472;2023-03-01T00:06:07;-2.00;99.90
29403;DHT22;16382;59.942;30.472;2023-03-01T00:08:35;-2.00;99.90
29403;DHT22;16382;59.942;30.472;2023-03-01T00:11:06;-2.00;99.90
29403;DHT22;16382;59.942;30.472;2023-03-01T00:13:35;-1.90;99.90
29403;DHT22;16382;59.942;30.472;2023-03-01T00:16:04;-1.80;99.90
29403;DHT22;16382;59.942;30.472;2023-03-01T00:18:32;-1.70;99.90
29403;DHT22;16382;59.942;30.472;2023-03-01T00:21:00;-1.70;99.90
29403;DHT22;16382;59.942;30.472;2023-03-01T00:23:27;-1.70;99.90
29403;DHT22;16382;59.942;30.472;2023-03-01T00:25:55;-1.60;99.90
29403;DHT22;16382;59.942;30.472;2023-03-01T00:28:24;-1.60;99.90
29403;DHT22;16382;59.942;30.472;2023-03-01T00:30:51;-1.60;99.90
29403;DHT22;16382;59.942;30.472;2023-03-01T00:33:19;-1.50;99.90
29403;DHT22;16382;59.942;30.472;2023-03-01T00:35:47;-1.50;99.90
29403;DHT22;16382;59.942;30.472;2023-03-01T00:38:14;-1.50;99.90
29403;DHT22;16382;59.942;30.472;2023-03-01T00:40:42;-1.40;99.90
29403;DHT22;16382;59.942;30.472;2023-03-01T00:43:09;-1.40;99.90
29403;DHT22;16382;59.942;30.472;2023-03-01T00:45:38;-1.40;99.90
29403;DHT22;16382;59.942;30.472;2023-03-01T00:48:06;-1.40;99.90
29403;DHT22;16382;59.942;30.472;2023-03-01T00:50:33;-1.40;99.90
29403;DHT22;16382;59.942;30.472;2023-03-01T00:53:02;-1.40;99.90
29403;DHT22;16382;59.942;30.472;2023-03-01T00:55:31;-1.30;99.90
29403;DHT22;16382;59.942;30.472;2023-03-01T00:57:58;-1.30;99.90
29403;DHT22;16382;59.942;30.472;2023-03-01T01:00:26;-1.20;99.90
29403;DHT22;16382;59.942;30.472;2023-03-01T01:02:55;-1.20;99.90
29403;DHT22;16382;59.942;30.472;2023-03-01T01:05:22;-1.20;99.90
29403;DHT22;16382;59.942;30.472;2023-03-01T01:07:50;-1.10;99.90
29403;DHT22;16382;59.942;30.472;2023-03-01T01:10:17;-1.10;99.90
29403;DHT22;16382;59.942;30.472;2023-03-01T01:12:45;-1.10;99.90
29403;DHT22;16382;59.942;30.472;2023-03-01T01:15:13;-1.20;99.90
29403;DHT22;16382;59.942;30.472;2023-03-01T01:17:42;-1.20;99.90
29403;DHT22;16382;59.942;30.472;2023-03-01T01:20:12;-1.20;99.90
29403;DHT22;16382;59.942;30.472;2023-03-01T01:22:39;-1.20;99.90
29403;DHT22;16382;59.942;30.472;2023-03-01T01:25:07;-1.20;99.90
29403;DHT22;16382;59.942;30.472;2023-03-01T01:27:36;-1.20;99.90
29403;DHT22;16382;59.942;30.472;2023-03-01T01:30:05;-1.30;99.90
29403;DHT22;16382;59.942;30.472;2023-03-01T01:32:33;-1.30;99.90
29403;DHT22;16382;59.942;30.472;2023-03-01T01:35:00;-1.30;99.90
29403;DHT22;16382;59.942;30.472;2023-03-01T01:37:30;-1.40;99.90
29403;DHT22;16382;59.942;30.472;2023-03-01T01:39:59;-1.40;99.90
29403;DHT22;16382;59.942;30.472;2023-03-01T01:42:30;-1.50;99.90
29403;DHT22;16382;59.942;30.472;2023-03-01T01:45:27;-1.60;99.90
29403;DHT22;16382;59.942;30.472;2023-03-01T01:47:59;-1.60;99.90
29403;DHT22;16382;59.942;30.472;2023-03-01T01:50:29;-1.70;99.90
29403;DHT22;16382;59.942;30.472;2023-03-01T01:53:08;-1.70;99.90
29403;DHT22;16382;59.942;30.472;2023-03-01T01:55:40;-1.80;99.90
29403;DHT22;16382;59.942;30.472;2023-03-01T01:58:11;-1.80;99.90
29403;DHT22;16382;59.942;30.472;2023-03-01T02:00:40;-1.90;99.90
29403;DHT22;16382;59.942;30.472;2023-03-01T02:03:10;-1.90;99.90
29403;DHT22;16382;59.942;30.472;2023-03-01T02:05:42;-1.90;99.90
29403;DHT22;16382;59.942;30.472;2023-03-01T02:08:15;-1.90;99.90
29403;DHT22;16382;59.942;30.472;2023-03-01T02:10:44;-1.90;99.90
29403;DHT22;16382;59.942;30.472;2023-03-01T02:13:12;-2.00;99.90
29403;DHT22;16382;59.942;30.472;2023-03-01T02:15:40;-2.00;99.90
29403;DHT22;16382;59.942;30.472;2023-03-01T02:18:11;-2.00;99.90
29403;DHT22;16382;59.942;30.472;2023-03-01T02:20:48;-2.00;99.90
29403;DHT22;16382;59.942;30.472;2023-03-01T02:23:24;-2.00;99.90
29403;DHT22;16382;59.942;30.472;2023-03-01T02:25:55;-2.10;99.90
29403;DHT22;16382;59.942;30.472;2023-03-01T02:28:30;-2.10;99.90
29403;DHT22;16382;59.942;30.472;2023-03-01T02:30:58;-2.10;99.90
29403;DHT22;16382;59.942;30.472;2023-03-01T02:33:44;-2.10;99.90
29403;DHT22;16382;59.942;30.472;2023-03-01T02:36:17;-2.10;99.90
29403;DHT22;16382;59.942;30.472;2023-03-01T02:38:47;-2.10;99.90
29403;DHT22;16382;59.942;30.472;2023-03-01T02:41:16;-2.20;99.90
29403;DHT22;16382;59.942;30.472;2023-03-01T02:43:47;-2.20;99.90
29403;DHT22;16382;59.942;30.472;2023-03-01T02:46:17;-2.20;99.90
29403;DHT22;16382;59.942;30.472;2023-03-01T02:48:48;-2.20;99.90
29403;DHT22;16382;59.942;30.472;2023-03-01T02:51:24;-2.20;99.90
29403;DHT22;16382;59.942;30.472;2023-03-01T02:54:08;-2.20;99.90
29403;DHT22;16382;59.942;30.472;2023-03-01T02:56:40;-2.20;99.90
29403;DHT22;16382;59.942;30.472;2023-03-01T02:59:10;-2.20;99.90
29403;DHT22;16382;59.942;30.472;2023-03-01T03:01:38;-2.20;99.90
29403;DHT22;16382;59.942;30.472;2023-03-01T03:04:09;-2.20;99.90
29403;DHT22;16382;59.942;30.472;2023-03-01T03:06:37;-2.30;99.90
29403;DHT22;16382;59.942;30.472;2023-03-01T03:09:05;-2.20;99.90
29403;DHT22;16382;59.942;30.472;2023-03-01T03:11:33;-2.30;99.90
29403;DHT22;16382;59.942;30.472;2023-03-01T03:14:02;-2.30;99.90
29403;DHT22;16382;59.942;30.472;2023-03-01T03:16:31;-2.30;99.90
29403;DHT22;16382;59.942;30.472;2023-03-01T03:18:59;-2.30;99.90
29403;DHT22;16382;59.942;30.472;2023-03-01T03:21:31;-2.40;99.90
29403;DHT22;16382;59.942;30.472;2023-03-01T03:23:58;-2.30;99.90
29403;DHT22;16382;59.942;30.472;2023-03-01T03:26:26;-2.40;99.90
29403;DHT22;16382;59.942;30.472;2023-03-01T03:28:53;-2.30;99.90
29403;DHT22;16382;59.942;30.472;2023-03-01T03:31:21;-2.30;99.90
29403;DHT22;16382;59.942;30.472;2023-03-01T03:33:49;-2.40;99.90
29403;DHT22;16382;59.942;30.472;2023-03-01T03:36:18;-2.40;99.90
29403;DHT22;16382;59.942;30.472;2023-03-01T03:38:47;-2.40;99.90
29403;DHT22;16382;59.942;30.472;2023-03-01T03:41:15;-2.40;99.90
29403;DHT22;16382;59.942;30.472;2023-03-01T03:43:44;-2.40;99.90
29403;DHT22;16382;59.942;30.472;2023-03-01T03:46:12;-2.40;99.90
29403;DHT22;16382;59.942;30.472;2023-03-01T03:48:41;-2.40;99.90
29403;DHT22;16382;59.942;30.472;2023-03-01T03:51:12;-2.40;99.90
29403;DHT22;16382;59.942;30.472;2023-03-01T03:53:40;-2.40;99.90
29403;DHT22;16382;59.942;30.472;2023-03-01T03:56:08;-2.40;99.90
29403;DHT22;16382;59.942;30.472;2023-03-01T03:58:36;-2.40;99.90
29403;DHT22;16382;59.942;30.472;2023-03-01T04:01:04;-2.40;99.90
29403;DHT22;16382;59.942;30.472;2023-03-01T04:03:32;-2.50;99.90
29403;DHT22;16382;59.942;30.472;2023-03-01T04:06:01;-2.40;99.90
29403;DHT22;16382;59.942;30.472;2023-03-01T04:08:31;-2.40;99.90
29403;DHT22;16382;59.942;30.472;2023-03-01T04:11:00;-2.50;99.90
29403;DHT22;16382;59.942;30.472;2023-03-01T04:13:50;-2.50;99.90
29403;DHT22;16382;59.942;30.472;2023-03-01T04:16:20;-2.50;99.90
29403;DHT22;16382;59.942;30.472;2023-03-01T04:18:47;-2.50;99.90
29403;DHT22;16382;59.942;30.472;2023-03-01T04:21:15;-2.50;99.90
29403;DHT22;16382;59.942;30.472;2023-03-01T04:23:44;-2.50;99.90
29403;DHT22;16382;59.942;30.472;2023-03-01T04:26:11;-2.50;99.90
29403;DHT22;16382;59.942;30.472;2023-03-01T04:28:41;-2.60;99.90
29403;DHT22;16382;59.942;30.472;2023-03-01T04:31:13;-2.50;99.90
29403;DHT22;16382;59.942;30.472;2023-03-01T04:33:45;-2.60;99.90
29403;DHT22;16382;59.942;30.472;2023-03-01T04:36:15;-2.60;99.90
29403;DHT22;16382;59.942;30.472;2023-03-01T04:38:45;-2.60;99.90
29403;DHT22;16382;59.942;30.472;2023-03-01T04:41:16;-2.60;99.90
29403;DHT22;16382;59.942;30.472;2023-03-01T04:43:49;-2.60;99.90
29403;DHT22;16382;59.942;30.472;2023-03-01T04:46:18;-2.60;99.90
29403;DHT22;16382;59.942;30.472;2023-03-01T04:48:47;-2.60;99.90
29403;DHT22;16382;59.942;30.472;2023-03-01T04:51:15;-2.60;99.90
29403;DHT22;16382;59.942;30.472;2023-03-01T04:53:45;-2.60;99.90
29403;DHT22;16382;59.942;30.472;2023-03-01T04:56:13;-2.60;99.90
29403;DHT22;16382;59.942;30.472;2023-03-01T04:58:41;-2.60;99.90
29403;DHT22;16382;59.942;30.472;2023-03-01T05:01:09;-2.60;99.90
29403;DHT22;16382;59.942;30.472;2023-03-01T05:03:43;-2.60;99.90
29403;DHT22;16382;59.942;30.472;2023-03-01T05:06:11;-2.60;99.90
29403;DHT22;16382;59.942;30.472;2023-03-01T05:08:39;-2.60;99.90
29403;DHT22;16382;59.942;30.472;2023-03-01T05:11:09;-2.60;99.90
29403;DHT22;16382;59.942;30.472;2023-03-01T05:13:38;-2.50;99.90
29403;DHT22;16382;59.942;30.472;2023-03-01T05:16:07;-2.50;99.90
29403;DHT22;16382;59.942;30.472;2023-03-01T05:18:37;-2.40;99.90
29403;DHT22;16382;59.942;30.472;2023-03-01T05:21:07;-2.40;99.90
29403;DHT22;16382;59.942;30.472;2023-03-01T05:23:35;-2.40;99.90
29403;DHT22;16382;59.942;30.472;2023-03-01T05:26:05;-2.40;99.90
29403;DHT22;16382;59.942;30.472;2023-03-01T05:28:34;-2.30;99.90
29403;DHT22;16382;59.942;30.472;2023-03-01T05:31:03;-2.30;99.90
29403;DHT22;16382;59.942;30.472;2023-03-01T05:33:36;-2.20;99.90
29403;DHT22;16382;59.942;30.472;2023-03-01T05:36:04;-2.20;99.90
29403;DHT22;16382;59.942;30.472;2023-03-01T05:38:33;-2.20;99.90
29403;DHT22;16382;59.942;30.472;2023-03-01T05:41:00;-2.10;99.90
29403;DHT22;16382;59.942;30.472;2023-03-01T05:43:30;-2.10;99.90
29403;DHT22;16382;59.942;30.472;2023-03-01T05:46:01;-2.10;99.90
29403;DHT22;16382;59.942;30.472;2023-03-01T05:48:28;-2.00;99.90
29403;DHT22;16382;59.942;30.472;2023-03-01T05:50:59;-2.00;99.90
29403;DHT22;16382;59.942;30.472;2023-03-01T05:53:27;-1.90;99.90
29403;DHT22;16382;59.942;30.472;2023-03-01T05:55:55;-1.80;99.90
29403;DHT22;16382;59.942;30.472;2023-03-01T05:58:23;-1.80;99.90
29403;DHT22;16382;59.942;30.472;2023-03-01T06:00:51;-1.70;99.90
29403;DHT22;16382;59.942;30.472;2023-03-01T06:03:20;-1.60;99.90
29403;DHT22;16382;59.942;30.472;2023-03-01T06:05:47;-1.60;99.90
29403;DHT22;16382;59.942;30.472;2023-03-01T06:08:14;-1.60;99.90
29403;DHT22;16382;59.942;30.472;2023-03-01T06:10:42;-1.60;99.90
29403;DHT22;16382;59.942;30.472;2023-03-01T06:13:09;-1.60;99.90
29403;DHT22;16382;59.942;30.472;2023-03-01T06:15:36;-1.60;99.90
29403;DHT22;16382;59.942;30.472;2023-03-01T06:18:04;-1.60;99.90
29403;DHT22;16382;59.942;30.472;2023-03-01T06:20:33;-1.60;99.90
29403;DHT22;16382;59.942;30.472;2023-03-01T06:23:01;-1.60;99.90
29403;DHT22;16382;59.942;30.472;2023-03-01T06:25:28;-1.60;99.90
29403;DHT22;16382;59.942;30.472;2023-03-01T06:27:56;-1.60;99.90
29403;DHT22;16382;59.942;30.472;2023-03-01T06:30:25;-1.60;99.90
29403;DHT22;16382;59.942;30.472;2023-03-01T06:32:53;-1.60;99.90
29403;DHT22;16382;59.942;30.472;2023-03-01T06:35:27;-1.60;99.90
29403;DHT22;16382;59.942;30.472;2023-03-01T06:37:59;-1.70;99.90
29403;DHT22;16382;59.942;30.472;2023-03-01T06:40:27;-1.70;99.90
29403;DHT22;16382;59.942;30.472;2023-03-01T06:42:55;-1.70;99.90
29403;DHT22;16382;59.942;30.472;2023-03-01T06:45:22;-1.70;99.90
29403;DHT22;16382;59.942;30.472;2023-03-01T06:47:50;-1.70;99.90
29403;DHT22;16382;59.942;30.472;2023-03-01T06:50:21;-1.70;99.90
29403;DHT22;16382;59.942;30.472;2023-03-01T06:52:48;-1.60;99.90
29403;DHT22;16382;59.942;30.472;2023-03-01T06:55:24;-1.60;99.90
29403;DHT22;16382;59.942;30.472;2023-03-01T06:57:54;-1.60;99.90
29403;DHT22;16382;59.942;30.472;2023-03-01T07:00:23;-1.50;99.90
29403;DHT22;16382;59.942;30.472;2023-03-01T07:02:51;-1.50;99.90
29403;DHT22;16382;59.942;30.472;2023-03-01T07:05:19;-1.40;99.90
29403;DHT22;16382;59.942;30.472;2023-03-01T07:07:46;-1.40;99.90
29403;DHT22;16382;59.942;30.472;2023-03-01T07:10:16;-1.30;99.90
29403;DHT22;16382;59.942;30.472;2023-03-01T07:12:43;-1.30;99.90
29403;DHT22;16382;59.942;30.472;2023-03-01T07:15:12;-1.20;99.90
29403;DHT22;16382;59.942;30.472;2023-03-01T07:17:40;-1.10;99.90
29403;DHT22;16382;59.942;30.472;2023-03-01T07:20:11;-1.00;99.90
29403;DHT22;16382;59.942;30.472;2023-03-01T07:22:40;-0.90;99.90
29403;DHT22;16382;59.942;30.472;2023-03-01T07:25:08;-0.70;99.90
29403;DHT22;16382;59.942;30.472;2023-03-01T07:27:37;-0.70;99.90
29403;DHT22;16382;59.942;30.472;2023-03-01T07:30:05;-0.60;99.90
29403;DHT22;16382;59.942;30.472;2023-03-01T07:32:34;-0.60;99.90
29403;DHT22;16382;59.942;30.472;2023-03-01T07:35:01;-0.30;99.90
29403;DHT22;16382;59.942;30.472;2023-03-01T07:37:29;0.50;99.90
29403;DHT22;16382;59.942;30.472;2023-03-01T07:39:56;1.50;99.90
29403;DHT22;16382;59.942;30.472;2023-03-01T07:42:26;2.60;99.90
29403;DHT22;16382;59.942;30.472;2023-03-01T07:44:55;3.40;99.90
29403;DHT22;16382;59.942;30.472;2023-03-01T07:47:24;4.00;99.60
29403;DHT22;16382;59.942;30.472;2023-03-01T07:49:51;4.60;95.10
29403;DHT22;16382;59.942;30.472;2023-03-01T07:52:18;4.90;93.20
29403;DHT22;16382;59.942;30.472;2023-03-01T07:54:46;5.20;90.60
29403;DHT22;16382;59.942;30.472;2023-03-01T07:57:13;5.00;89.20
29403;DHT22;16382;59.942;30.472;2023-03-01T07:59:41;4.70;89.30
29403;DHT22;16382;59.942;30.472;2023-03-01T08:02:10;4.60;90.50
29403;DHT22;16382;59.942;30.472;2023-03-01T08:04:38;4.80;90.20
29403;DHT22;16382;59.942;30.472;2023-03-01T08:07:06;5.30;90.10
29403;DHT22;16382;59.942;30.472;2023-03-01T08:09:34;5.50;86.40
29403;DHT22;16382;59.942;30.472;2023-03-01T08:12:03;5.50;85.90
29403;DHT22;16382;59.942;30.472;2023-03-01T08:14:31;5.70;85.50
29403;DHT22;16382;59.942;30.472;2023-03-01T08:16:59;6.30;84.00
29403;DHT22;16382;59.942;30.472;2023-03-01T08:19:30;7.20;81.80
29403;DHT22;16382;59.942;30.472;2023-03-01T08:21:59;8.30;76.20
29403;DHT22;16382;59.942;30.472;2023-03-01T08:24:26;9.00;72.20
29403;DHT22;16382;59.942;30.472;2023-03-01T08:26:54;9.80;70.10
29403;DHT22;16382;59.942;30.472;2023-03-01T08:29:22;10.60;67.20
29403;DHT22;16382;59.942;30.472;2023-03-01T08:31:50;11.10;63.40
29403;DHT22;16382;59.942;30.472;2023-03-01T08:34:18;11.40;61.10
29403;DHT22;16382;59.942;30.472;2023-03-01T08:36:47;12.10;57.70
29403;DHT22;16382;59.942;30.472;2023-03-01T08:39:17;12.10;57.10
29403;DHT22;16382;59.942;30.472;2023-03-01T08:41:46;11.60;56.80
29403;DHT22;16382;59.942;30.472;2023-03-01T08:44:15;10.80;57.60
29403;DHT22;16382;59.942;30.472;2023-03-01T08:46:44;10.40;58.40
29403;DHT22;16382;59.942;30.472;2023-03-01T08:49:17;9.80;59.00
29403;DHT22;16382;59.942;30.472;2023-03-01T08:51:47;9.30;60.30
29403;DHT22;16382;59.942;30.472;2023-03-01T08:54:17;9.20;61.70
29403;DHT22;16382;59.942;30.472;2023-03-01T08:56:46;9.50;61.70
29403;DHT22;16382;59.942;30.472;2023-03-01T08:59:17;9.50;61.40
29403;DHT22;16382;59.942;30.472;2023-03-01T09:01:45;9.60;61.70
29403;DHT22;16382;59.942;30.472;2023-03-01T09:04:14;10.20;61.20
29403;DHT22;16382;59.942;30.472;2023-03-01T09:06:41;10.50;60.00
29403;DHT22;16382;59.942;30.472;2023-03-01T09:09:14;10.30;59.90
29403;DHT22;16382;59.942;30.472;2023-03-01T09:11:43;10.60;60.70
29403;DHT22;16382;59.942;30.472;2023-03-01T09:14:12;10.70;59.20
29403;DHT22;16382;59.942;30.472;2023-03-01T09:16:39;10.00;60.10
29403;DHT22;16382;59.942;30.472;2023-03-01T09:19:07;9.40;61.20
29403;DHT22;16382;59.942;30.472;2023-03-01T09:21:34;8.70;62.70
29403;DHT22;16382;59.942;30.472;2023-03-01T09:24:01;8.20;64.40
29403;DHT22;16382;59.942;30.472;2023-03-01T09:26:30;7.70;65.90
29403;DHT22;16382;59.942;30.472;2023-03-01T09:28:57;7.50;67.20
29403;DHT22;16382;59.942;30.472;2023-03-01T09:31:25;7.60;67.80
29403;DHT22;16382;59.942;30.472;2023-03-01T09:33:53;7.30;68.60
29403;DHT22;16382;59.942;30.472;2023-03-01T09:36:22;7.00;69.00
29403;DHT22;16382;59.942;30.472;2023-03-01T09:38:52;6.40;71.00
29403;DHT22;16382;59.942;30.472;2023-03-01T09:41:31;5.90;73.00
29403;DHT22;16382;59.942;30.472;2023-03-01T09:44:11;5.60;74.80
29403;DHT22;16382;59.942;30.472;2023-03-01T09:46:44;5.20;76.90
29403;DHT22;16382;59.942;30.472;2023-03-01T09:49:15;4.90;76.50
29403;DHT22;16382;59.942;30.472;2023-03-01T09:51:54;4.70;77.50
29403;DHT22;16382;59.942;30.472;2023-03-01T09:54:23;4.80;77.40
29403;DHT22;16382;59.942;30.472;2023-03-01T09:57:05;4.60;77.50
29403;DHT22;16382;59.942;30.472;2023-03-01T09:59:49;4.50;78.00
29403;DHT22;16382;59.942;30.472;2023-03-01T10:02:27;4.10;78.70
29403;DHT22;16382;59.942;30.472;2023-03-01T10:05:10;3.90;79.90
29403;DHT22;16382;59.942;30.472;2023-03-01T10:10:26;3.70;81.30
29403;DHT22;16382;59.942;30.472;2023-03-01T10:12:57;3.60;83.00
29403;DHT22;16382;59.942;30.472;2023-03-01T10:15:32;3.50;83.50
29403;DHT22;16382;59.942;30.472;2023-03-01T10:18:04;3.40;84.60
29403;DHT22;16382;59.942;30.472;2023-03-01T10:20:42;3.40;85.30
29403;DHT22;16382;59.942;30.472;2023-03-01T10:23:12;3.30;86.20
29403;DHT22;16382;59.942;30.472;2023-03-01T10:25:47;3.30;87.30
29403;DHT22;16382;59.942;30.472;2023-03-01T10:28:31;3.50;87.80
29403;DHT22;16382;59.942;30.472;2023-03-01T10:31:12;3.80;87.30
29403;DHT22;16382;59.942;30.472;2023-03-01T10:33:41;3.90;86.90
29403;DHT22;16382;59.942;30.472;2023-03-01T10:36:08;3.90;87.30
29403;DHT22;16382;59.942;30.472;2023-03-01T10:38:49;3.80;88.70
29403;DHT22;16382;59.942;30.472;2023-03-01T10:41:20;3.60;90.00
29403;DHT22;16382;59.942;30.472;2023-03-01T10:43:53;3.50;90.70
29403;DHT22;16382;59.942;30.472;2023-03-01T10:46:26;3.30;91.60
29403;DHT22;16382;59.942;30.472;2023-03-01T10:49:07;3.40;92.60
29403;DHT22;16382;59.942;30.472;2023-03-01T10:51:41;3.70;92.30
29403;DHT22;16382;59.942;30.472;2023-03-01T10:54:17;3.60;93.20
29403;DHT22;16382;59.942;30.472;2023-03-01T10:56:48;3.50;94.20
29403;DHT22;16382;59.942;30.472;2023-03-01T10:59:25;3.60;94.80
29403;DHT22;16382;59.942;30.472;2023-03-01T11:02:14;3.70;95.60
29403;DHT22;16382;59.942;30.472;2023-03-01T11:04:59;3.60;96.90
29403;DHT22;16382;59.942;30.472;2023-03-01T11:07:30;3.50;97.90
29403;DHT22;16382;59.942;30.472;2023-03-01T11:09:57;3.50;99.10
29403;DHT22;16382;59.942;30.472;2023-03-01T11:12:25;3.50;99.90
29403;DHT22;16382;59.942;30.472;2023-03-01T11:14:57;3.60;99.90
29403;DHT22;16382;59.942;30.472;2023-03-01T11:17:27;3.70;99.90
29403;DHT22;16382;59.942;30.472;2023-03-01T11:20:13;3.80;99.90
29403;DHT22;16382;59.942;30.472;2023-03-01T11:22:49;3.80;99.90
29403;DHT22;16382;59.942;30.472;2023-03-01T11:25:20;3.80;99.90
29403;DHT22;16382;59.942;30.472;2023-03-01T11:27:52;3.70;99.90
29403;DHT22;16382;59.942;30.472;2023-03-01T11:30:25;3.70;99.90
29403;DHT22;16382;59.942;30.472;2023-03-01T11:33:05;3.60;99.90
29403;DHT22;16382;59.942;30.472;2023-03-01T11:35:44;3.40;99.90
29403;DHT22;16382;59.942;30.472;2023-03-01T11:38:21;3.30;99.90
29403;DHT22;16382;59.942;30.472;2023-03-01T11:40:53;3.20;99.90
29403;DHT22;16382;59.942;30.472;2023-03-01T11:43:33;3.20;99.90
29403;DHT22;16382;59.942;30.472;2023-03-01T11:46:38;3.20;99.90
29403;DHT22;16382;59.942;30.472;2023-03-01T11:49:37;3.00;99.90
29403;DHT22;16382;59.942;30.472;2023-03-01T11:52:21;3.00;99.90
29403;DHT22;16382;59.942;30.472;2023-03-01T11:55:07;2.80;99.90
29403;DHT22;16382;59.942;30.472;2023-03-01T11:58:00;2.70;99.90
29403;DHT22;16382;59.942;30.472;2023-03-01T12:01:02;2.60;99.90
29403;DHT22;16382;59.942;30.472;2023-03-01T12:03:57;2.50;99.90
29403;DHT22;16382;59.942;30.472;2023-03-01T12:06:41;2.40;99.90
29403;DHT22;16382;59.942;30.472;2023-03-01T12:09:23;2.50;99.90
29403;DHT22;16382;59.942;30.472;2023-03-01T12:12:21;2.40;99.90
29403;DHT22;16382;59.942;30.472;2023-03-01T12:15:11;2.40;99.90
29403;DHT22;16382;59.942;30.472;2023-03-01T12:18:02;2.40;99.90
29403;DHT22;16382;59.942;30.472;2023-03-01T12:20:46;2.30;99.90
29403;DHT22;16382;59.942;30.472;2023-03-01T12:23:44;2.10;99.90
29403;DHT22;16382;59.942;30.472;2023-03-01T12:26:24;2.00;99.90
29403;DHT22;16382;59.942;30.472;2023-03-01T12:29:15;2.00;99.90
29403;DHT22;16382;59.942;30.472;2023-03-01T12:38:10;1.80;99.90
29403;DHT22;16382;59.942;30.472;2023-03-01T12:43:51;1.60;99.90
29403;DHT22;16382;59.942;30.472;2023-03-01T12:46:38;1.60;99.90
29403;DHT22;16382;59.942;30.472;2023-03-01T12:49:13;1.50;99.90
29403;DHT22;16382;59.942;30.472;2023-03-01T12:51:47;1.50;99.90
29403;DHT22;16382;59.942;30.472;2023-03-01T12:54:26;1.40;99.90
29403;DHT22;16382;59.942;30.472;2023-03-01T12:56:56;1.40;99.90
29403;DHT22;16382;59.942;30.472;2023-03-01T12:59:29;1.30;99.90
29403;DHT22;16382;59.942;30.472;2023-03-01T13:02:12;1.30;99.90
29403;DHT22;16382;59.942;30.472;2023-03-01T13:04:56;1.30;99.90
29403;DHT22;16382;59.942;30.472;2023-03-01T13:07:35;1.30;99.90
29403;DHT22;16382;59.942;30.472;2023-03-01T13:10:21;1.20;99.90
29403;DHT22;16382;59.942;30.472;2023-03-01T13:13:01;1.20;99.90
29403;DHT22;16382;59.942;30.472;2023-03-01T13:15:32;1.20;99.90
29403;DHT22;16382;59.942;30.472;2023-03-01T13:18:03;1.20;99.90
29403;DHT22;16382;59.942;30.472;2023-03-01T13:20:44;1.20;99.90
29403;DHT22;16382;59.942;30.472;2023-03-01T13:23:27;1.20;99.90
29403;DHT22;16382;59.942;30.472;2023-03-01T13:26:09;1.10;99.90
29403;DHT22;16382;59.942;30.472;2023-03-01T13:28:49;1.10;99.90
29403;DHT22;16382;59.942;30.472;2023-03-01T13:34:51;1.20;99.90
29403;DHT22;16382;59.942;30.472;2023-03-01T13:37:22;1.20;99.90
29403;DHT22;16382;59.942;30.472;2023-03-01T13:40:00;1.30;99.90
29403;DHT22;16382;59.942;30.472;2023-03-01T13:42:42;1.30;99.90
29403;DHT22;16382;59.942;30.472;2023-03-01T13:45:24;1.40;99.90
29403;DHT22;16382;59.942;30.472;2023-03-01T13:48:02;1.50;99.90
29403;DHT22;16382;59.942;30.472;2023-03-01T13:50:46;1.50;99.90
29403;DHT22;16382;59.942;30.472;2023-03-01T13:53:19;1.60;99.90
29403;DHT22;16382;59.942;30.472;2023-03-01T13:55:49;1.60;99.90
29403;DHT22;16382;59.942;30.472;2023-03-01T13:58:26;1.60;99.90
29403;DHT22;16382;59.942;30.472;2023-03-01T14:00:57;1.60;99.90
29403;DHT22;16382;59.942;30.472;2023-03-01T14:03:28;1.60;99.90
29403;DHT22;16382;59.942;30.472;2023-03-01T14:06:03;1.60;99.90
29403;DHT22;16382;59.942;30.472;2023-03-01T14:08:36;1.60;99.90
29403;DHT22;16382;59.942;30.472;2023-03-01T14:11:35;1.60;99.90
29403;DHT22;16382;59.942;30.472;2023-03-01T14:17:42;1.60;99.90
29403;DHT22;16382;59.942;30.472;2023-03-01T14:20:20;1.60;99.90
29403;DHT22;16382;59.942;30.472;2023-03-01T14:22:54;1.60;99.90
29403;DHT22;16382;59.942;30.472;2023-03-01T14:25:29;1.60;99.90
29403;DHT22;16382;59.942;30.472;2023-03-01T14:28:01;1.60;99.90
29403;DHT22;16382;59.942;30.472;2023-03-01T14:30:42;1.60;99.90
29403;DHT22;16382;59.942;30.472;2023-03-01T14:33:21;1.50;99.90
29403;DHT22;16382;59.942;30.472;2023-03-01T14:35:56;1.50;99.90
29403;DHT22;16382;59.942;30.472;2023-03-01T14:38:31;1.50;99.90
29403;DHT22;16382;59.942;30.472;2023-03-01T14:41:03;1.30;99.90
29403;DHT22;16382;59.942;30.472;2023-03-01T14:43:32;1.30;99.90
29403;DHT22;16382;59.942;30.472;2023-03-01T14:46:02;1.10;99.90
29403;DHT22;16382;59.942;30.472;2023-03-01T14:48:31;1.00;99.90
29403;DHT22;16382;59.942;30.472;2023-03-01T14:50:59;1.00;99.90
29403;DHT22;16382;59.942;30.472;2023-03-01T14:53:28;0.90;99.90
29403;DHT22;16382;59.942;30.472;2023-03-01T14:56:01;0.90;99.90
29403;DHT22;16382;59.942;30.472;2023-03-01T14:58:32;0.80;99.90
29403;DHT22;16382;59.942;30.472;2023-03-01T15:01:04;0.80;99.90
29403;DHT22;16382;59.942;30.472;2023-03-01T15:03:34;0.80;99.90
29403;DHT22;16382;59.942;30.472;2023-03-01T15:06:04;0.80;99.90
29403;DHT22;16382;59.942;30.472;2023-03-01T15:08:36;0.80;99.90
29403;DHT22;16382;59.942;30.472;2023-03-01T15:11:17;0.80;99.90
29403;DHT22;16382;59.942;30.472;2023-03-01T15:13:48;0.80;99.90
29403;DHT22;16382;59.942;30.472;2023-03-01T15:16:20;0.80;99.90
29403;DHT22;16382;59.942;30.472;2023-03-01T15:18:52;0.80;99.90
29403;DHT22;16382;59.942;30.472;2023-03-01T15:21:23;0.80;99.90
29403;DHT22;16382;59.942;30.472;2023-03-01T15:23:54;0.70;99.90
29403;DHT22;16382;59.942;30.472;2023-03-01T15:26:31;0.70;99.90
29403;DHT22;16382;59.942;30.472;2023-03-01T15:29:04;0.60;99.90
29403;DHT22;16382;59.942;30.472;2023-03-01T15:31:35;0.50;99.90
29403;DHT22;16382;59.942;30.472;2023-03-01T15:34:10;0.50;99.90
29403;DHT22;16382;59.942;30.472;2023-03-01T15:36:51;0.40;99.90
29403;DHT22;16382;59.942;30.472;2023-03-01T15:39:40;0.40;99.90
29403;DHT22;16382;59.942;30.472;2023-03-01T15:42:13;0.30;99.90
29403;DHT22;16382;59.942;30.472;2023-03-01T15:45:10;0.30;99.90
29403;DHT22;16382;59.942;30.472;2023-03-01T15:47:56;0.30;99.90
29403;DHT22;16382;59.942;30.472;2023-03-01T15:50:29;0.20;99.90
29403;DHT22;16382;59.942;30.472;2023-03-01T15:52:59;0.20;99.90
29403;DHT22;16382;59.942;30.472;2023-03-01T15:55:31;0.10;99.90
29403;DHT22;16382;59.942;30.472;2023-03-01T15:58:05;0.20;99.90
29403;DHT22;16382;59.942;30.472;2023-03-01T16:00:49;0.20;99.90
29403;DHT22;16382;59.942;30.472;2023-03-01T16:03:26;0.30;99.90
29403;DHT22;16382;59.942;30.472;2023-03-01T16:05:55;0.30;99.90
29403;DHT22;16382;59.942;30.472;2023-03-01T16:08:23;0.30;99.90
29403;DHT22;16382;59.942;30.472;2023-03-01T16:10:51;0.40;99.90
29403;DHT22;16382;59.942;30.472;2023-03-01T16:13:20;0.50;99.90